createdAt,value
2022-09-25T00:02:09.996Z,0.65
2022-09-25T00:04:37.301Z,0.47
2022-09-25T00:07:04.761Z,0.50
2022-09-25T00:09:32.144Z,0.43
2022-09-25T00:11:59.453Z,0.73
2022-09-25T00:14:26.734Z,0.52
2022-09-25T00:16:54.008Z,0.70
2022-09-25T00:19:40.647Z,0.50
2022-09-25T00:22:07.921Z,0.47
2022-09-25T00:24:35.660Z,1.02
2022-09-25T00:27:02.948Z,0.70
2022-09-25T00:29:30.924Z,0.43
2022-09-25T00:31:58.137Z,0.50
2022-09-25T00:34:25.476Z,0.45
2022-09-25T00:36:52.682Z,0.50
2022-09-25T00:39:19.899Z,0.60
2022-09-25T00:41:47.136Z,0.50
2022-09-25T00:44:33.022Z,0.52
2022-09-25T00:47:00.379Z,0.50
2022-09-25T00:49:27.657Z,0.70
2022-09-25T00:51:57.552Z,0.57
2022-09-25T00:54:31.480Z,0.50
2022-09-25T00:56:59.799Z,0.50
2022-09-25T00:59:37.535Z,0.60
2022-09-25T01:02:05.081Z,0.65
2022-09-25T01:04:35.372Z,0.50
2022-09-25T01:07:03.090Z,0.60
2022-09-25T01:09:30.436Z,0.75
2022-09-25T01:11:57.661Z,0.45
2022-09-25T01:14:26.845Z,0.73
2022-09-25T01:16:54.373Z,0.50
2022-09-25T01:19:24.353Z,0.50
2022-09-25T01:21:55.268Z,0.70
2022-09-25T01:24:42.226Z,0.68
2022-09-25T01:27:12.196Z,0.38
2022-09-25T01:29:39.497Z,0.38
2022-09-25T01:32:09.675Z,0.50
2022-09-25T01:34:36.854Z,0.70
2022-09-25T01:37:11.445Z,0.30
2022-09-25T01:39:42.005Z,0.30
2022-09-25T01:42:09.281Z,0.60
2022-09-25T01:44:57.806Z,0.80
2022-09-25T01:47:27.997Z,0.40
2022-09-25T01:49:58.846Z,0.80
2022-09-25T01:52:32.631Z,0.68
2022-09-25T01:55:04.220Z,0.50
2022-09-25T01:57:35.158Z,0.52
2022-09-25T02:00:06.692Z,0.55
2022-09-25T02:02:36.648Z,0.70
2022-09-25T02:05:11.822Z,0.52
2022-09-25T02:07:43.326Z,0.50
2022-09-25T02:10:13.570Z,0.98
2022-09-25T02:12:43.657Z,0.40
2022-09-25T02:15:22.724Z,1.13
2022-09-25T02:18:13.003Z,0.50
2022-09-25T02:20:42.201Z,0.80
2022-09-25T02:23:15.526Z,0.47
2022-09-25T02:25:44.828Z,0.50
2022-09-25T02:28:12.078Z,0.45
2022-09-25T02:30:39.344Z,0.60
2022-09-25T02:33:06.606Z,0.50
2022-09-25T02:35:33.955Z,0.43
2022-09-25T02:38:01.193Z,0.55
2022-09-25T02:40:42.721Z,0.50
2022-09-25T02:43:17.607Z,1.17
2022-09-25T02:45:49.362Z,0.75
2022-09-25T02:48:24.152Z,0.60
2022-09-25T02:51:09.718Z,0.70
2022-09-25T02:53:39.268Z,2.33
2022-09-25T02:56:21.516Z,0.40
2022-09-25T02:58:56.634Z,0.60
2022-09-25T03:01:25.903Z,0.70
2022-09-25T03:03:55.564Z,0.52
2022-09-25T03:06:23.339Z,0.77
2022-09-25T03:08:53.025Z,0.60
2022-09-25T03:11:21.317Z,0.47
2022-09-25T03:13:56.537Z,0.73
2022-09-25T03:16:26.801Z,0.80
2022-09-25T03:18:54.033Z,0.50
2022-09-25T03:21:21.217Z,0.50
2022-09-25T03:23:48.439Z,0.70
2022-09-25T03:26:15.664Z,0.65
2022-09-25T03:28:42.979Z,0.80
2022-09-25T03:31:13.487Z,0.90
2022-09-25T03:33:41.897Z,0.70
2022-09-25T03:36:20.542Z,0.75
2022-09-25T03:38:49.230Z,0.75
2022-09-25T03:41:21.058Z,0.80
2022-09-25T03:43:51.277Z,0.80
2022-09-25T03:46:22.951Z,1.20
2022-09-25T03:48:50.435Z,0.77
2022-09-25T03:51:18.726Z,1.00
2022-09-25T03:53:46.234Z,0.70
2022-09-25T03:56:14.756Z,0.70
2022-09-25T03:58:41.978Z,1.10
2022-09-25T04:01:10.964Z,0.80
2022-09-25T04:03:39.352Z,1.00
2022-09-25T04:06:08.210Z,1.00
2022-09-25T04:08:36.857Z,0.77
2022-09-25T04:11:04.957Z,0.70
2022-09-25T04:13:33.882Z,0.82
2022-09-25T04:16:01.950Z,0.90
2022-09-25T04:18:31.503Z,0.70
2022-09-25T04:20:59.440Z,1.10
2022-09-25T04:23:26.845Z,0.95
2022-09-25T04:25:54.550Z,0.80
2022-09-25T04:28:22.444Z,0.70
2022-09-25T04:30:49.805Z,0.70
2022-09-25T04:33:36.178Z,0.80
2022-09-25T04:36:04.080Z,1.00
2022-09-25T04:38:32.364Z,0.57
2022-09-25T04:41:00.303Z,0.70
2022-09-25T04:43:30.861Z,0.75
2022-09-25T04:46:05.221Z,0.80
2022-09-25T04:48:34.139Z,0.68
2022-09-25T04:51:01.373Z,0.70
2022-09-25T04:53:29.998Z,0.90
2022-09-25T04:56:03.970Z,0.70
2022-09-25T04:58:31.266Z,0.80
2022-09-25T05:01:02.736Z,0.73
2022-09-25T05:03:30.150Z,0.88
2022-09-25T05:05:57.499Z,0.93
2022-09-25T05:08:24.712Z,1.23
2022-09-25T05:10:51.979Z,0.95
2022-09-25T05:13:19.177Z,0.90
2022-09-25T05:15:46.429Z,0.73
2022-09-25T05:18:13.630Z,0.90
2022-09-25T05:20:40.851Z,0.70
2022-09-25T05:23:08.526Z,0.90
2022-09-25T05:25:36.057Z,0.85
2022-09-25T05:28:03.317Z,0.90
2022-09-25T05:30:31.885Z,1.20
2022-09-25T05:32:59.390Z,1.10
2022-09-25T05:35:27.868Z,0.93
2022-09-25T05:37:55.378Z,1.10
2022-09-25T05:40:23.682Z,1.10
2022-09-25T05:42:52.059Z,1.10
2022-09-25T05:45:20.121Z,1.45
2022-09-25T05:47:47.879Z,1.05
2022-09-25T05:50:16.353Z,1.55
2022-09-25T05:52:44.084Z,1.80
2022-09-25T05:55:11.457Z,1.50
2022-09-25T05:57:38.966Z,1.52
2022-09-25T06:00:11.597Z,1.17
2022-09-25T06:02:38.850Z,1.08
2022-09-25T06:05:06.255Z,1.40
2022-09-25T06:07:33.525Z,1.20
2022-09-25T06:10:00.837Z,1.20
2022-09-25T06:12:31.430Z,1.45
2022-09-25T06:14:58.904Z,1.48
2022-09-25T06:17:26.164Z,1.80
2022-09-25T06:19:53.477Z,1.38
2022-09-25T06:22:20.738Z,1.35
2022-09-25T06:24:48.779Z,0.90
2022-09-25T06:27:15.996Z,1.02
2022-09-25T06:29:43.245Z,1.60
2022-09-25T06:32:10.451Z,1.20
2022-09-25T06:34:37.876Z,0.90
2022-09-25T06:37:05.089Z,0.90
2022-09-25T06:39:33.900Z,1.25
2022-09-25T06:42:01.172Z,1.33
2022-09-25T06:44:28.450Z,0.80
2022-09-25T06:46:55.687Z,0.90
2022-09-25T06:49:23.127Z,0.90
2022-09-25T06:51:51.203Z,1.08
2022-09-25T06:54:18.883Z,0.82
2022-09-25T06:56:49.838Z,0.73
2022-09-25T06:59:17.374Z,0.82
2022-09-25T07:01:44.668Z,0.85
2022-09-25T07:04:12.075Z,0.93
2022-09-25T07:06:39.597Z,0.95
2022-09-25T07:09:06.919Z,0.90
2022-09-25T07:11:34.144Z,0.80
2022-09-25T07:14:01.484Z,1.00
2022-09-25T07:16:29.942Z,0.80
2022-09-25T07:19:00.537Z,0.73
2022-09-25T07:21:30.701Z,0.75
2022-09-25T07:23:58.947Z,1.20
2022-09-25T07:26:28.243Z,0.80
2022-09-25T07:29:08.985Z,1.10
2022-09-25T07:31:39.146Z,0.75
2022-09-25T07:34:09.334Z,0.85
2022-09-25T07:36:42.623Z,0.95
2022-09-25T07:39:16.104Z,0.68
2022-09-25T07:41:45.560Z,1.00
2022-09-25T07:44:30.213Z,0.82
2022-09-25T07:47:01.366Z,0.70
2022-09-25T07:49:29.224Z,0.90
2022-09-25T07:51:56.543Z,0.77
2022-09-25T07:54:24.862Z,0.65
2022-09-25T07:56:52.423Z,0.60
2022-09-25T07:59:19.676Z,0.63
2022-09-25T08:01:51.230Z,0.70
2022-09-25T08:04:21.180Z,0.88
2022-09-25T08:06:48.486Z,0.70
2022-09-25T08:09:15.724Z,0.57
2022-09-25T08:11:43.844Z,0.70
2022-09-25T08:14:14.352Z,0.60
2022-09-25T08:16:42.834Z,0.60
2022-09-25T08:19:10.883Z,0.70
2022-09-25T08:21:38.075Z,0.73
2022-09-25T08:24:05.868Z,0.75
2022-09-25T08:26:33.162Z,0.60
2022-09-25T08:29:00.525Z,0.80
2022-09-25T08:31:28.475Z,0.70
2022-09-25T08:33:55.758Z,1.13
2022-09-25T08:36:23.749Z,0.80
2022-09-25T08:38:56.100Z,0.55
2022-09-25T08:41:28.092Z,0.85
2022-09-25T08:43:55.381Z,0.60
2022-09-25T08:46:44.252Z,0.65
2022-09-25T08:49:14.233Z,0.57
2022-09-25T08:51:41.478Z,0.68
2022-09-25T08:54:11.421Z,0.43
2022-09-25T08:56:38.955Z,0.40
2022-09-25T08:59:09.870Z,0.60
2022-09-25T09:01:45.561Z,0.70
2022-09-25T09:04:23.050Z,0.60
2022-09-25T09:07:24.570Z,0.50
2022-09-25T09:09:45.235Z,0.50
2022-09-25T09:12:22.072Z,0.70
2022-09-25T09:14:50.662Z,0.60
2022-09-25T09:17:18.279Z,0.50
2022-09-25T09:20:00.829Z,0.50
2022-09-25T09:22:31.894Z,0.60
2022-09-25T09:25:05.306Z,0.50
2022-09-25T09:28:04.306Z,0.65
2022-09-25T09:30:34.445Z,0.60
2022-09-25T09:33:24.770Z,0.50
2022-09-25T09:36:10.990Z,0.50
2022-09-25T09:38:41.998Z,0.95
2022-09-25T09:41:19.100Z,0.70
2022-09-25T09:43:54.957Z,0.57
2022-09-25T09:46:33.636Z,0.40
2022-09-25T09:49:09.870Z,0.43
2022-09-25T09:51:47.232Z,0.50
2022-09-25T09:54:21.402Z,0.63
2022-09-25T09:56:50.504Z,0.40
2022-09-25T09:59:20.047Z,0.60
2022-09-25T10:01:53.185Z,0.40
2022-09-25T10:04:23.878Z,0.40
2022-09-25T10:06:54.703Z,0.65
2022-09-25T10:09:24.993Z,0.40
2022-09-25T10:11:57.152Z,0.35
2022-09-25T10:14:33.213Z,0.30
2022-09-25T10:17:01.165Z,0.30
2022-09-25T10:19:29.889Z,0.68
2022-09-25T10:22:04.034Z,0.38
2022-09-25T10:24:54.888Z,0.50
2022-09-25T10:27:28.610Z,0.60
2022-09-25T10:30:04.083Z,0.32
2022-09-25T10:32:31.642Z,0.38
2022-09-25T10:34:58.910Z,0.40
2022-09-25T10:37:29.129Z,0.50
2022-09-25T10:40:07.306Z,0.50
2022-09-25T10:42:37.710Z,0.30
2022-09-25T10:45:27.962Z,0.20
2022-09-25T10:48:13.851Z,0.38
2022-09-25T10:50:41.814Z,0.28
2022-09-25T10:53:28.312Z,0.30
2022-09-25T10:56:00.502Z,0.40
2022-09-25T10:58:37.062Z,0.43
2022-09-25T11:01:05.661Z,0.20
2022-09-25T11:03:41.060Z,0.30
2022-09-25T11:06:10.937Z,0.20
2022-09-25T11:08:40.171Z,0.20
2022-09-25T11:11:09.402Z,0.30
2022-09-25T11:13:43.927Z,0.20
2022-09-25T11:16:11.587Z,0.50
2022-09-25T11:18:41.755Z,0.40
2022-09-25T11:23:42.919Z,0.17
2022-09-25T11:26:16.831Z,0.30
2022-09-25T11:29:05.149Z,0.40
2022-09-25T11:31:35.403Z,0.40
2022-09-25T11:34:17.163Z,0.20
2022-09-25T11:36:49.368Z,0.20
2022-09-25T11:39:58.331Z,0.22
2022-09-25T11:42:29.418Z,0.20
2022-09-25T11:45:01.185Z,0.28
2022-09-25T11:47:55.011Z,0.32
2022-09-25T11:50:26.001Z,0.28
2022-09-25T11:53:17.533Z,0.40
2022-09-25T11:56:07.758Z,0.50
2022-09-25T11:58:57.693Z,0.40
2022-09-25T12:01:38.019Z,0.35
2022-09-25T12:04:05.358Z,0.50
2022-09-25T12:07:08.205Z,0.30
2022-09-25T12:09:47.799Z,0.30
2022-09-25T12:12:24.840Z,0.28
2022-09-25T12:15:14.281Z,0.25
2022-09-25T12:17:47.390Z,0.25
2022-09-25T12:20:33.429Z,0.50
2022-09-25T12:23:06.529Z,0.28
2022-09-25T12:25:33.729Z,0.43
2022-09-25T12:28:08.190Z,0.30
2022-09-25T12:30:39.394Z,0.30
2022-09-25T12:33:31.747Z,0.30
2022-09-25T12:36:03.678Z,0.28
2022-09-25T12:38:39.430Z,0.45
2022-09-25T12:41:36.274Z,0.20
2022-09-25T12:44:23.690Z,0.30
2022-09-25T12:46:57.742Z,0.30
2022-09-25T12:49:25.204Z,0.30
2022-09-25T12:51:54.699Z,0.50
2022-09-25T12:54:38.216Z,0.30
2022-09-25T12:57:22.551Z,0.30
2022-09-25T12:59:52.396Z,0.20
2022-09-25T13:02:27.310Z,0.20
2022-09-25T13:05:06.965Z,0.20
2022-09-25T13:07:40.469Z,0.38
2022-09-25T13:10:20.723Z,0.20
2022-09-25T13:12:48.490Z,0.30
2022-09-25T13:15:21.744Z,0.25
2022-09-25T13:17:48.968Z,0.30
2022-09-25T13:20:28.526Z,0.20
2022-09-25T13:23:16.060Z,0.28
2022-09-25T13:25:48.310Z,0.20
2022-09-25T13:28:21.602Z,0.20
2022-09-25T13:31:00.177Z,0.40
2022-09-25T13:33:28.444Z,0.20
2022-09-25T13:36:09.300Z,0.17
2022-09-25T13:38:59.056Z,0.20
2022-09-25T13:41:26.377Z,0.30
2022-09-25T13:44:12.931Z,0.30
2022-09-25T13:46:40.253Z,0.40
2022-09-25T13:49:26.493Z,0.57
2022-09-25T13:51:53.775Z,0.30
2022-09-25T13:54:26.349Z,0.20
2022-09-25T13:59:24.478Z,0.20
2022-09-25T14:01:56.599Z,0.10
2022-09-25T14:04:33.944Z,0.10
2022-09-25T14:07:06.520Z,0.20
2022-09-25T14:09:35.005Z,0.10
2022-09-25T14:12:05.471Z,0.10
2022-09-25T14:14:37.006Z,0.20
2022-09-25T14:17:05.026Z,0.25
2022-09-25T14:19:35.558Z,0.20
2022-09-25T14:22:04.641Z,0.20
2022-09-25T14:24:32.297Z,0.10
2022-09-25T14:27:01.230Z,0.20
2022-09-25T14:29:31.302Z,0.20
2022-09-25T14:31:59.322Z,0.20
2022-09-25T14:34:42.121Z,0.00
2022-09-25T14:37:14.115Z,0.32
2022-09-25T14:39:48.260Z,0.10
2022-09-25T14:42:17.413Z,0.30
2022-09-25T14:45:02.475Z,0.50
2022-09-25T14:47:37.069Z,0.30
2022-09-25T14:50:04.847Z,0.20
2022-09-25T14:52:35.101Z,0.40
2022-09-25T14:55:03.528Z,0.30
2022-09-25T14:57:39.597Z,0.22
2022-09-25T15:00:08.363Z,0.30
2022-09-25T15:02:43.845Z,0.20
2022-09-25T15:05:20.345Z,0.43
2022-09-25T15:07:47.987Z,0.50
2022-09-25T15:10:29.936Z,0.20
2022-09-25T15:13:17.460Z,0.30
2022-09-25T15:16:06.889Z,0.20
2022-09-25T15:18:37.793Z,0.20
2022-09-25T15:21:08.004Z,0.20
2022-09-25T15:23:38.071Z,0.30
2022-09-25T15:26:05.692Z,0.10
2022-09-25T15:28:39.792Z,0.57
2022-09-25T15:31:07.236Z,0.10
2022-09-25T15:33:37.233Z,0.10
2022-09-25T15:36:30.948Z,0.30
2022-09-25T15:39:04.154Z,0.30
2022-09-25T15:41:31.429Z,0.17
2022-09-25T15:44:17.899Z,0.20
2022-09-25T15:46:47.320Z,0.15
2022-09-25T15:49:16.358Z,0.30
2022-09-25T15:51:51.948Z,0.20
2022-09-25T15:54:28.195Z,0.17
2022-09-25T15:56:57.116Z,0.32
2022-09-25T15:59:30.110Z,0.32
2022-09-25T16:02:16.374Z,0.20
2022-09-25T16:04:49.507Z,0.30
2022-09-25T16:07:30.373Z,0.15
2022-09-25T16:10:00.985Z,0.30
2022-09-25T16:12:34.979Z,0.30
2022-09-25T16:15:24.519Z,0.45
2022-09-25T16:17:51.736Z,0.20
2022-09-25T16:20:24.418Z,0.20
2022-09-25T16:25:25.942Z,0.30
2022-09-25T16:27:55.087Z,0.20
2022-09-25T16:30:23.926Z,0.40
2022-09-25T16:32:55.130Z,0.30
2022-09-25T16:35:40.673Z,0.40
2022-09-25T16:40:42.776Z,0.70
2022-09-25T16:43:25.795Z,0.30
2022-09-25T16:45:58.207Z,0.28
2022-09-25T16:48:30.053Z,0.30
2022-09-25T16:50:59.927Z,0.13
2022-09-25T16:53:27.577Z,0.47
2022-09-25T16:55:54.885Z,0.30
2022-09-25T16:58:23.322Z,0.40
2022-09-25T17:00:51.019Z,0.20
2022-09-25T17:03:18.319Z,0.40
2022-09-25T17:05:45.641Z,0.20
2022-09-25T17:08:17.561Z,0.50
2022-09-25T17:10:45.295Z,0.20
2022-09-25T17:13:15.933Z,0.30
2022-09-25T17:15:43.287Z,0.38
2022-09-25T17:18:14.894Z,0.65
2022-09-25T17:20:42.142Z,0.40
2022-09-25T17:23:10.838Z,0.30
2022-09-25T17:25:53.213Z,0.20
2022-09-25T17:28:20.440Z,0.35
2022-09-25T17:30:49.788Z,0.28
2022-09-25T17:33:18.919Z,0.20
2022-09-25T17:35:54.517Z,0.22
2022-09-25T17:38:22.249Z,0.20
2022-09-25T17:40:52.328Z,0.30
2022-09-25T17:43:19.808Z,0.40
2022-09-25T17:45:50.201Z,0.50
2022-09-25T17:48:23.371Z,0.50
2022-09-25T17:50:54.580Z,0.40
2022-09-25T17:53:25.777Z,0.50
2022-09-25T17:55:54.045Z,0.40
2022-09-25T17:58:22.180Z,0.47
2022-09-25T18:00:49.497Z,0.50
2022-09-25T18:03:17.086Z,0.35
2022-09-25T18:05:45.037Z,0.35
2022-09-25T18:08:12.972Z,0.40
2022-09-25T18:10:40.567Z,0.88
2022-09-25T18:13:08.729Z,0.43
2022-09-25T18:15:36.854Z,0.52
2022-09-25T18:18:04.487Z,0.40
2022-09-25T18:20:50.435Z,0.57
2022-09-25T18:23:17.687Z,0.40
2022-09-25T18:25:44.902Z,0.30
2022-09-25T18:28:12.287Z,0.50
2022-09-25T18:30:39.538Z,0.40
2022-09-25T18:33:06.993Z,0.30
2022-09-25T18:35:34.247Z,0.73
2022-09-25T18:38:01.710Z,0.50
2022-09-25T18:40:28.991Z,0.50
2022-09-25T18:42:56.326Z,0.40
2022-09-25T18:45:23.567Z,0.40
2022-09-25T18:47:50.778Z,0.50
2022-09-25T18:50:20.815Z,0.45
2022-09-25T18:52:48.494Z,0.50
2022-09-25T18:55:15.788Z,0.57
2022-09-25T18:57:43.213Z,0.30
2022-09-25T19:00:10.740Z,1.20
2022-09-25T19:02:39.232Z,0.63
2022-09-25T19:05:07.193Z,0.43
2022-09-25T19:07:34.532Z,0.30
2022-09-25T19:10:07.705Z,0.45
2022-09-25T19:12:34.979Z,0.35
2022-09-25T19:15:04.747Z,0.50
2022-09-25T19:17:32.377Z,0.40
2022-09-25T19:19:59.597Z,0.20
2022-09-25T19:22:26.835Z,0.50
2022-09-25T19:24:54.433Z,0.40
2022-09-25T19:27:22.352Z,0.45
2022-09-25T19:29:49.622Z,0.65
2022-09-25T19:32:17.641Z,1.00
2022-09-25T19:34:44.981Z,1.00
2022-09-25T19:37:12.238Z,0.90
2022-09-25T19:39:58.010Z,0.70
2022-09-25T19:42:27.441Z,0.73
2022-09-25T19:44:55.930Z,0.50
2022-09-25T19:47:23.732Z,0.45
2022-09-25T19:49:50.944Z,0.30
2022-09-25T19:52:20.489Z,0.30
2022-09-25T19:54:47.785Z,0.55
2022-09-25T19:57:15.193Z,0.40
2022-09-25T19:59:42.399Z,0.63
2022-09-25T20:02:10.269Z,0.57
2022-09-25T20:04:37.612Z,0.57
2022-09-25T20:07:04.846Z,0.40
2022-09-25T20:09:34.851Z,0.50
2022-09-25T20:12:06.274Z,0.30
2022-09-25T20:14:33.522Z,0.60
2022-09-25T20:17:01.121Z,0.38
2022-09-25T20:19:28.427Z,0.40
2022-09-25T20:21:55.963Z,0.40
2022-09-25T20:24:23.834Z,0.40
2022-09-25T20:26:51.116Z,0.30
2022-09-25T20:29:19.691Z,0.38
2022-09-25T20:31:47.337Z,0.52
2022-09-25T20:34:15.666Z,0.50
2022-09-25T20:36:43.787Z,0.60
2022-09-25T20:39:11.456Z,0.55
2022-09-25T20:41:40.150Z,1.08
2022-09-25T20:44:07.647Z,0.63
2022-09-25T20:46:35.358Z,0.50
2022-09-25T20:49:05.724Z,0.52
2022-09-25T20:51:35.813Z,0.47
2022-09-25T20:54:07.082Z,0.45
2022-09-25T20:56:57.439Z,0.32
2022-09-25T20:59:27.139Z,0.55
2022-09-25T21:04:27.330Z,0.47
2022-09-25T21:06:54.815Z,0.35
2022-09-25T21:09:23.303Z,0.50
2022-09-25T21:11:50.530Z,1.20
2022-09-25T21:14:25.014Z,0.38
2022-09-25T21:16:57.784Z,0.57
2022-09-25T21:19:35.098Z,0.50
2022-09-25T21:22:04.482Z,0.52
2022-09-25T21:24:31.758Z,0.50
2022-09-25T21:27:01.145Z,0.60
2022-09-25T21:29:33.868Z,0.50
2022-09-25T21:32:01.415Z,0.50
2022-09-25T21:34:28.666Z,0.50
2022-09-25T21:36:58.012Z,0.50
2022-09-25T21:39:25.307Z,0.47
2022-09-25T21:41:52.916Z,0.47
2022-09-25T21:44:23.446Z,0.30
2022-09-25T21:46:50.653Z,0.60
2022-09-25T21:49:18.959Z,0.57
2022-09-25T21:51:46.579Z,0.60
2022-09-25T21:54:17.235Z,0.40
2022-09-25T21:56:50.482Z,0.60
2022-09-25T21:59:18.182Z,0.47
2022-09-25T22:01:45.589Z,0.40
2022-09-25T22:04:14.600Z,0.30
2022-09-25T22:06:44.407Z,0.50
2022-09-25T22:09:13.620Z,0.40
2022-09-25T22:11:44.233Z,0.55
2022-09-25T22:14:15.822Z,0.70
2022-09-25T22:16:44.345Z,0.57
2022-09-25T22:19:23.846Z,0.70
2022-09-25T22:21:52.009Z,0.50
2022-09-25T22:24:19.948Z,0.50
2022-09-25T22:26:48.218Z,0.60
2022-09-25T22:29:16.743Z,0.70
2022-09-25T22:31:44.515Z,0.50
2022-09-25T22:34:22.577Z,0.30
2022-09-25T22:36:54.877Z,0.50
2022-09-25T22:39:25.362Z,0.60
2022-09-25T22:41:53.046Z,0.40
2022-09-25T22:44:20.772Z,0.63
2022-09-25T22:46:48.606Z,0.40
2022-09-25T22:49:15.863Z,0.80
2022-09-25T22:51:43.214Z,0.50
2022-09-25T22:54:13.095Z,0.43
2022-09-25T22:56:40.357Z,0.40
2022-09-25T22:59:09.353Z,0.50
2022-09-25T23:01:39.189Z,0.60
2022-09-25T23:04:07.896Z,0.43
2022-09-25T23:06:35.731Z,0.60
2022-09-25T23:09:05.177Z,0.70
2022-09-25T23:11:32.875Z,0.50
2022-09-25T23:14:11.613Z,0.47
2022-09-25T23:16:38.987Z,0.50
2022-09-25T23:19:06.742Z,0.70
2022-09-25T23:21:34.136Z,0.50
2022-09-25T23:24:06.104Z,0.35
2022-09-25T23:26:33.782Z,0.45
2022-09-25T23:29:04.786Z,0.47
2022-09-25T23:31:32.881Z,0.50
2022-09-25T23:34:03.359Z,0.40
2022-09-25T23:36:30.937Z,0.50
2022-09-25T23:39:01.699Z,0.93
2022-09-25T23:41:30.224Z,0.40
2022-09-25T23:43:57.832Z,0.60
2022-09-25T23:46:25.944Z,0.50
2022-09-25T23:48:53.378Z,0.68
2022-09-25T23:51:22.929Z,0.47
2022-09-25T23:53:50.614Z,0.60
2022-09-25T23:56:19.689Z,0.50
2022-09-25T23:58:47.430Z,0.50
